createdAt,value
2018-06-05T00:01:05.498Z,18.35
2018-06-05T00:03:35.504Z,18.21
2018-06-05T00:06:05.545Z,18.20
2018-06-05T00:08:35.590Z,18.16
2018-06-05T00:11:05.634Z,18.21
2018-06-05T00:13:35.656Z,18.16
2018-06-05T00:16:05.709Z,18.20
2018-06-05T00:18:35.700Z,18.18
2018-06-05T00:21:05.773Z,18.20
2018-06-05T00:23:35.808Z,18.22
2018-06-05T00:26:05.897Z,18.16
2018-06-05T00:28:35.881Z,18.05
2018-06-05T00:31:05.885Z,18.04
2018-06-05T00:33:35.882Z,18.02
2018-06-05T00:36:05.953Z,18.00
2018-06-05T00:38:35.966Z,17.94
2018-06-05T00:41:06.009Z,17.96
2018-06-05T00:43:35.941Z,17.95
2018-06-05T00:46:05.947Z,17.91
2018-06-05T00:48:35.914Z,17.89
2018-06-05T00:51:21.294Z,17.84
2018-06-05T00:53:51.330Z,17.78
2018-06-05T00:56:21.334Z,17.74
2018-06-05T00:58:51.352Z,17.73
2018-06-05T01:01:21.398Z,17.68
2018-06-05T01:03:51.379Z,17.63
2018-06-05T01:06:21.441Z,17.62
2018-06-05T01:08:51.497Z,17.57
2018-06-05T01:11:21.503Z,17.46
2018-06-05T01:13:51.506Z,17.49
2018-06-05T01:16:21.526Z,17.50
2018-06-05T01:18:51.527Z,17.52
2018-06-05T01:21:21.533Z,17.51
2018-06-05T01:23:51.536Z,17.53
2018-06-05T01:26:21.569Z,17.55
2018-06-05T01:28:51.564Z,17.54
2018-06-05T01:31:21.594Z,17.54
2018-06-05T01:33:51.579Z,17.52
2018-06-05T01:36:21.617Z,17.53
2018-06-05T01:38:51.606Z,17.52
2018-06-05T01:41:21.620Z,17.43
2018-06-05T01:43:51.620Z,17.40
2018-06-05T01:46:21.611Z,17.35
2018-06-05T01:48:51.622Z,17.27
2018-06-05T01:51:21.604Z,17.22
2018-06-05T01:53:51.658Z,17.21
2018-06-05T01:56:21.648Z,17.17
2018-06-05T01:58:51.635Z,17.02
2018-06-05T02:01:21.234Z,16.98
2018-06-05T02:03:51.240Z,16.94
2018-06-05T02:06:21.199Z,16.93
2018-06-05T02:08:51.184Z,16.85
2018-06-05T02:11:21.135Z,16.94
2018-06-05T02:13:51.143Z,16.96
2018-06-05T02:16:21.141Z,16.95
2018-06-05T02:18:51.142Z,16.89
2018-06-05T02:21:21.138Z,16.80
2018-06-05T02:23:51.160Z,16.73
2018-06-05T02:26:21.169Z,16.69
2018-06-05T02:28:51.204Z,16.69
2018-06-05T02:31:21.191Z,16.66
2018-06-05T02:33:51.325Z,16.63
2018-06-05T02:36:20.981Z,16.58
2018-06-05T02:38:50.993Z,16.58
2018-06-05T02:41:21.006Z,16.52
2018-06-05T02:43:51.939Z,16.57
2018-06-05T02:46:22.610Z,16.51
2018-06-05T02:48:52.640Z,16.45
2018-06-05T02:51:22.637Z,16.46
2018-06-05T02:53:52.762Z,16.41
2018-06-05T02:56:22.772Z,16.42
2018-06-05T02:58:52.787Z,16.42
2018-06-05T03:01:22.835Z,16.41
2018-06-05T03:03:52.827Z,16.35
2018-06-05T03:06:22.795Z,16.29
2018-06-05T03:08:52.836Z,16.25
2018-06-05T03:11:22.879Z,16.20
2018-06-05T03:13:52.914Z,16.25
2018-06-05T03:16:22.887Z,16.25
2018-06-05T03:18:52.933Z,16.20
2018-06-05T03:21:22.922Z,16.22
2018-06-05T03:23:53.006Z,16.23
2018-06-05T03:26:22.990Z,16.23
2018-06-05T03:28:53.020Z,16.22
2018-06-05T03:31:23.050Z,16.18
2018-06-05T03:33:53.070Z,16.12
2018-06-05T03:36:23.084Z,16.14
2018-06-05T03:38:53.134Z,16.14
2018-06-05T03:41:23.192Z,16.17
2018-06-05T03:43:53.226Z,16.21
2018-06-05T03:46:23.255Z,16.20
2018-06-05T03:48:53.636Z,16.23
2018-06-05T03:51:23.648Z,16.22
2018-06-05T03:53:53.725Z,16.24
2018-06-05T03:56:23.348Z,16.23
2018-06-05T03:58:53.398Z,16.21
2018-06-05T04:01:23.385Z,16.20
2018-06-05T04:03:53.442Z,16.21
2018-06-05T04:06:23.486Z,16.23
2018-06-05T04:08:53.556Z,16.22
2018-06-05T04:11:23.614Z,16.22
2018-06-05T04:13:53.617Z,16.19
2018-06-05T04:16:23.647Z,16.18
2018-06-05T04:18:53.594Z,16.17
2018-06-05T04:21:23.612Z,16.14
2018-06-05T04:23:53.581Z,16.12
2018-06-05T04:26:23.563Z,16.09
2018-06-05T04:28:53.526Z,16.11
2018-06-05T04:31:23.528Z,16.11
2018-06-05T04:33:53.502Z,16.17
2018-06-05T04:36:23.553Z,16.22
2018-06-05T04:38:53.542Z,16.32
2018-06-05T04:41:23.535Z,16.39
2018-06-05T04:43:53.517Z,16.42
2018-06-05T04:46:23.540Z,16.42
2018-06-05T04:48:53.152Z,16.50
2018-06-05T04:51:23.183Z,16.61
2018-06-05T04:53:53.184Z,16.77
2018-06-05T04:56:23.160Z,16.96
2018-06-05T04:58:53.145Z,17.06
2018-06-05T05:01:23.256Z,17.14
2018-06-05T05:03:53.303Z,17.22
2018-06-05T05:06:23.363Z,17.26
2018-06-05T05:08:53.403Z,17.34
2018-06-05T05:11:23.469Z,17.50
2018-06-05T05:13:53.488Z,17.64
2018-06-05T05:16:23.557Z,17.85
2018-06-05T05:18:53.618Z,18.03
2018-06-05T05:21:23.660Z,18.28
2018-06-05T05:23:53.672Z,18.49
2018-06-05T05:26:23.717Z,18.61
2018-06-05T05:28:53.748Z,19.05
2018-06-05T05:31:23.808Z,19.26
2018-06-05T05:33:53.395Z,19.46
2018-06-05T05:36:23.497Z,19.54
2018-06-05T05:38:53.526Z,19.61
2018-06-05T05:41:23.542Z,19.93
2018-06-05T05:43:53.509Z,20.04
2018-06-05T05:46:23.556Z,20.01
2018-06-05T05:48:53.581Z,20.11
2018-06-05T05:51:23.639Z,20.32
2018-06-05T05:53:53.706Z,20.42
2018-06-05T05:56:23.761Z,20.63
2018-06-05T05:58:53.771Z,20.68
2018-06-05T06:01:23.825Z,20.64
2018-06-05T06:03:54.070Z,20.96
2018-06-05T06:06:24.137Z,21.01
2018-06-05T06:08:54.183Z,20.95
2018-06-05T06:11:24.225Z,21.05
2018-06-05T06:13:54.907Z,21.09
2018-06-05T06:16:24.960Z,21.15
2018-06-05T06:18:54.987Z,21.21
2018-06-05T06:21:25.097Z,21.26
2018-06-05T06:23:55.197Z,21.21
2018-06-05T06:26:25.237Z,21.22
2018-06-05T06:28:55.290Z,21.25
2018-06-05T06:31:25.346Z,21.24
2018-06-05T06:33:55.386Z,21.34
2018-06-05T06:36:25.388Z,21.31
2018-06-05T06:38:55.450Z,21.26
2018-06-05T06:41:25.489Z,21.46
2018-06-05T06:43:55.524Z,21.82
2018-06-05T06:46:25.521Z,21.77
2018-06-05T06:48:55.659Z,21.86
2018-06-05T06:51:25.599Z,21.96
2018-06-05T06:53:55.672Z,21.99
2018-06-05T06:56:25.716Z,22.10
2018-06-05T06:58:55.766Z,22.15
2018-06-05T07:01:25.780Z,22.41
2018-06-05T07:03:55.811Z,22.48
2018-06-05T07:06:25.849Z,22.38
2018-06-05T07:08:55.902Z,22.37
2018-06-05T07:11:25.944Z,22.37
2018-06-05T07:13:55.944Z,22.56
2018-06-05T07:16:25.938Z,22.71
2018-06-05T07:18:55.968Z,22.61
2018-06-05T07:21:25.960Z,22.64
2018-06-05T07:23:56.005Z,22.64
2018-06-05T07:26:26.604Z,22.70
2018-06-05T07:28:56.608Z,22.93
2018-06-05T07:31:26.652Z,22.76
2018-06-05T07:33:56.734Z,22.67
2018-06-05T07:36:26.746Z,22.76
2018-06-05T07:38:56.726Z,22.90
2018-06-05T07:41:26.679Z,22.99
2018-06-05T07:43:56.675Z,23.18
2018-06-05T07:46:26.639Z,23.23
2018-06-05T07:48:56.617Z,23.11
2018-06-05T07:51:26.540Z,23.17
2018-06-05T07:53:56.559Z,23.40
2018-06-05T07:56:26.596Z,23.45
2018-06-05T07:58:56.652Z,23.24
2018-06-05T08:01:26.678Z,23.51
2018-06-05T08:03:56.723Z,23.51
2018-06-05T08:06:26.755Z,23.36
2018-06-05T08:08:56.840Z,23.27
2018-06-05T08:11:26.832Z,23.39
2018-06-05T08:13:56.843Z,23.26
2018-06-05T08:16:26.882Z,23.44
2018-06-05T08:18:56.894Z,23.51
2018-06-05T08:21:26.886Z,23.59
2018-06-05T08:23:56.909Z,23.54
2018-06-05T08:26:52.178Z,23.69
2018-06-05T08:29:22.731Z,23.56
2018-06-05T08:31:53.384Z,23.72
2018-06-05T08:34:23.454Z,23.83
2018-06-05T08:36:53.490Z,23.76
2018-06-05T08:39:23.090Z,23.73
2018-06-05T08:41:53.137Z,23.76
2018-06-05T08:44:23.105Z,23.82
2018-06-05T08:46:53.058Z,23.94
2018-06-05T08:49:23.074Z,24.04
2018-06-05T08:51:53.007Z,24.09
2018-06-05T08:54:23.007Z,24.14
2018-06-05T08:56:52.983Z,23.98
2018-06-05T08:59:23.010Z,24.04
2018-06-05T09:01:53.054Z,24.21
2018-06-05T09:04:23.059Z,24.38
2018-06-05T09:06:53.016Z,24.24
2018-06-05T09:09:23.039Z,24.37
2018-06-05T09:11:53.010Z,24.63
2018-06-05T09:14:22.987Z,24.40
2018-06-05T09:16:52.926Z,24.37
2018-06-05T09:19:22.919Z,24.53
2018-06-05T09:21:52.887Z,24.81
2018-06-05T09:24:22.858Z,24.98
2018-06-05T09:26:52.860Z,25.06
2018-06-05T09:29:22.806Z,25.12
2018-06-05T09:31:52.773Z,25.36
2018-06-05T09:34:22.757Z,25.35
2018-06-05T09:36:52.815Z,25.37
2018-06-05T09:39:22.844Z,25.46
2018-06-05T09:41:52.848Z,25.51
2018-06-05T09:44:22.844Z,25.60
2018-06-05T09:46:53.010Z,25.62
2018-06-05T09:49:22.993Z,25.72
2018-06-05T09:51:52.975Z,25.89
2018-06-05T09:54:22.987Z,26.05
2018-06-05T09:56:53.022Z,26.08
2018-06-05T09:59:23.060Z,26.07
2018-06-05T10:01:53.117Z,25.91
2018-06-05T10:04:23.158Z,25.97
2018-06-05T10:06:53.209Z,25.94
2018-06-05T10:09:23.223Z,26.06
2018-06-05T10:11:53.361Z,26.17
2018-06-05T10:14:23.412Z,26.21
2018-06-05T10:16:53.459Z,26.36
2018-06-05T10:19:23.474Z,26.54
2018-06-05T10:21:53.506Z,26.69
2018-06-05T10:24:23.581Z,26.64
2018-06-05T10:26:53.623Z,26.62
2018-06-05T10:29:23.662Z,26.70
2018-06-05T10:31:54.078Z,26.88
2018-06-05T10:34:24.077Z,26.79
2018-06-05T10:36:54.123Z,26.81
2018-06-05T10:39:24.103Z,26.81
2018-06-05T10:41:54.134Z,26.95
2018-06-05T10:44:24.084Z,27.14
2018-06-05T10:46:54.083Z,27.00
2018-06-05T10:49:24.046Z,26.91
2018-06-05T10:51:54.052Z,26.81
2018-06-05T10:54:24.120Z,26.83
2018-06-05T10:56:54.150Z,26.81
2018-06-05T10:59:24.080Z,26.81
2018-06-05T11:01:54.097Z,26.98
2018-06-05T11:04:24.019Z,26.97
2018-06-05T11:06:53.938Z,26.96
2018-06-05T11:09:23.868Z,27.10
2018-06-05T11:11:53.880Z,27.26
2018-06-05T11:14:23.819Z,27.13
2018-06-05T11:16:53.746Z,27.00
2018-06-05T11:19:23.680Z,27.04
2018-06-05T11:21:53.656Z,26.95
2018-06-05T11:24:23.912Z,27.17
2018-06-05T11:26:53.902Z,27.37
2018-06-05T11:29:23.848Z,27.13
2018-06-05T11:31:53.818Z,27.21
2018-06-05T11:34:23.787Z,27.13
2018-06-05T11:36:53.802Z,27.31
2018-06-05T11:39:23.707Z,27.35
2018-06-05T11:41:53.696Z,27.35
2018-06-05T11:44:23.664Z,27.30
2018-06-05T11:46:53.915Z,27.38
2018-06-05T11:49:23.936Z,27.31
2018-06-05T11:51:54.015Z,27.37
2018-06-05T11:54:24.022Z,27.34
2018-06-05T11:56:53.995Z,27.32
2018-06-05T11:59:24.027Z,27.15
2018-06-05T12:01:54.143Z,27.19
2018-06-05T12:04:24.109Z,27.25
2018-06-05T12:06:54.173Z,27.27
2018-06-05T12:09:24.114Z,27.35
2018-06-05T12:11:53.667Z,27.23
2018-06-05T12:14:23.735Z,27.07
2018-06-05T12:16:53.764Z,27.03
2018-06-05T12:19:23.834Z,26.83
2018-06-05T12:21:53.806Z,26.93
2018-06-05T12:24:23.768Z,26.93
2018-06-05T12:26:53.867Z,26.78
2018-06-05T12:29:23.904Z,27.03
2018-06-05T12:31:53.906Z,26.92
2018-06-05T12:34:23.937Z,26.96
2018-06-05T12:36:53.949Z,26.97
2018-06-05T12:39:23.963Z,27.12
2018-06-05T12:41:53.925Z,27.34
2018-06-05T12:44:23.923Z,27.39
2018-06-05T12:46:53.899Z,27.52
2018-06-05T12:49:23.869Z,27.53
2018-06-05T12:51:53.801Z,27.73
2018-06-05T12:54:23.809Z,27.88
2018-06-05T12:56:53.766Z,28.05
2018-06-05T12:59:23.796Z,28.03
2018-06-05T13:01:53.717Z,28.15
2018-06-05T13:04:23.706Z,27.98
2018-06-05T13:06:53.650Z,27.96
2018-06-05T13:09:23.663Z,28.10
2018-06-05T13:11:53.762Z,28.21
2018-06-05T13:14:23.753Z,28.17
2018-06-05T13:16:53.747Z,28.07
2018-06-05T13:19:23.737Z,28.11
2018-06-05T13:21:53.728Z,27.98
2018-06-05T13:24:23.766Z,28.05
2018-06-05T13:26:58.113Z,28.13
2018-06-05T13:29:28.127Z,27.97
2018-06-05T13:31:58.103Z,27.73
2018-06-05T13:34:28.276Z,27.77
2018-06-05T13:36:58.239Z,27.87
2018-06-05T13:39:28.281Z,27.81
2018-06-05T13:41:58.283Z,28.01
2018-06-05T13:44:28.254Z,28.14
2018-06-05T13:46:58.203Z,28.08
2018-06-05T13:49:28.216Z,28.24
2018-06-05T13:51:58.165Z,28.28
2018-06-05T13:54:28.180Z,28.33
2018-06-05T13:56:58.105Z,28.04
2018-06-05T13:59:28.075Z,27.95
2018-06-05T14:01:58.016Z,27.76
2018-06-05T14:04:28.001Z,27.70
2018-06-05T14:06:57.961Z,27.82
2018-06-05T14:09:27.911Z,27.87
2018-06-05T14:11:57.903Z,27.73
2018-06-05T14:14:27.871Z,27.83
2018-06-05T14:16:57.887Z,27.87
2018-06-05T14:19:28.118Z,28.04
2018-06-05T14:21:58.170Z,28.09
2018-06-05T14:24:28.180Z,28.06
2018-06-05T14:26:58.202Z,28.09
2018-06-05T14:29:28.232Z,28.12
2018-06-05T14:31:58.218Z,27.96
2018-06-05T14:34:28.209Z,27.75
2018-06-05T14:36:58.186Z,27.63
2018-06-05T14:39:28.121Z,27.58
2018-06-05T14:41:58.089Z,27.78
2018-06-05T14:44:28.054Z,27.97
2018-06-05T14:46:58.009Z,28.09
2018-06-05T14:49:28.032Z,28.06
2018-06-05T14:51:57.995Z,28.07
2018-06-05T14:54:27.998Z,28.14
2018-06-05T14:56:57.970Z,28.10
2018-06-05T14:59:27.978Z,28.18
2018-06-05T15:01:57.989Z,28.28
2018-06-05T15:04:28.077Z,28.41
2018-06-05T15:06:58.164Z,28.22
2018-06-05T15:09:28.153Z,28.15
2018-06-05T15:11:58.174Z,28.14
2018-06-05T15:14:28.171Z,28.28
2018-06-05T15:16:58.196Z,28.00
2018-06-05T15:19:28.152Z,27.68
2018-06-05T15:21:58.434Z,27.76
2018-06-05T15:24:28.381Z,27.77
2018-06-05T15:26:58.349Z,27.99
2018-06-05T15:29:28.345Z,28.10
2018-06-05T15:31:58.347Z,27.94
2018-06-05T15:34:28.288Z,27.86
2018-06-05T15:36:58.301Z,27.95
2018-06-05T15:39:28.253Z,28.03
2018-06-05T15:41:58.332Z,28.14
2018-06-05T15:44:28.286Z,28.17
2018-06-05T15:46:58.270Z,27.96
2018-06-05T15:49:28.203Z,27.83
2018-06-05T15:51:57.816Z,27.66
2018-06-05T15:54:27.772Z,27.60
2018-06-05T15:56:57.750Z,27.57
2018-06-05T15:59:27.722Z,27.46
2018-06-05T16:01:57.714Z,27.36
2018-06-05T16:04:27.697Z,27.36
2018-06-05T16:06:57.288Z,27.16
2018-06-05T16:09:27.292Z,27.32
2018-06-05T16:11:57.349Z,27.27
2018-06-05T16:14:27.356Z,27.31
2018-06-05T16:16:57.456Z,27.03
2018-06-05T16:19:27.522Z,27.34
2018-06-05T16:21:57.505Z,27.25
2018-06-05T16:24:27.506Z,27.33
2018-06-05T16:26:57.631Z,27.38
2018-06-05T16:29:27.683Z,27.28
2018-06-05T16:31:57.863Z,27.41
2018-06-05T16:34:28.462Z,27.20
2018-06-05T16:36:58.114Z,27.24
2018-06-05T16:39:28.174Z,27.33
2018-06-05T16:41:58.293Z,27.41
2018-06-05T16:44:28.313Z,27.24
2018-06-05T16:46:58.264Z,27.15
2018-06-05T16:49:28.284Z,27.21
2018-06-05T16:51:58.268Z,26.89
2018-06-05T16:54:28.301Z,26.77
2018-06-05T16:56:58.277Z,26.73
2018-06-05T16:59:28.438Z,26.74
2018-06-05T17:01:58.924Z,26.74
2018-06-05T17:04:29.097Z,26.86
2018-06-05T17:06:59.082Z,26.80
2018-06-05T17:09:29.110Z,26.93
2018-06-05T17:11:59.194Z,26.84
2018-06-05T17:14:29.280Z,26.88
2018-06-05T17:16:59.414Z,26.83
2018-06-05T17:19:29.531Z,26.61
2018-06-05T17:21:59.499Z,26.52
2018-06-05T17:24:29.557Z,26.27
2018-06-05T17:26:59.642Z,26.21
2018-06-05T17:29:29.785Z,26.20
2018-06-05T17:31:59.986Z,25.93
2018-06-05T17:34:29.670Z,25.87
2018-06-05T17:36:59.901Z,25.95
2018-06-05T17:39:29.985Z,25.72
2018-06-05T17:42:00.079Z,25.65
2018-06-05T17:44:30.099Z,25.62
2018-06-05T17:47:00.138Z,25.51
2018-06-05T17:49:30.191Z,25.41
2018-06-05T17:52:00.676Z,25.38
2018-06-05T17:54:30.866Z,25.38
2018-06-05T17:57:00.808Z,25.23
2018-06-05T17:59:30.982Z,25.16
2018-06-05T18:02:00.978Z,25.13
2018-06-05T18:04:30.958Z,25.10
2018-06-05T18:07:00.927Z,24.97
2018-06-05T18:09:31.823Z,25.07
2018-06-05T18:14:44.420Z,25.04
2018-06-05T18:17:14.385Z,24.82
2018-06-05T18:19:44.437Z,24.75
2018-06-05T18:22:14.408Z,24.79
2018-06-05T18:24:44.464Z,24.86
2018-06-05T18:27:14.471Z,24.79
2018-06-05T18:29:44.477Z,24.80
2018-06-05T18:32:14.434Z,24.82
2018-06-05T18:34:44.424Z,24.74
2018-06-05T18:37:14.501Z,24.70
2018-06-05T18:39:44.660Z,24.55
2018-06-05T18:42:14.644Z,24.61
2018-06-05T18:44:44.671Z,24.50
2018-06-05T18:47:14.674Z,24.47
2018-06-05T18:49:45.291Z,24.50
2018-06-05T18:52:15.385Z,24.45
2018-06-05T18:54:45.792Z,24.26
2018-06-05T18:57:15.880Z,24.27
2018-06-05T18:59:45.995Z,24.27
2018-06-05T19:02:16.171Z,24.17
2018-06-05T19:04:46.194Z,24.13
2018-06-05T19:07:16.126Z,24.11
2018-06-05T19:09:46.189Z,24.05
2018-06-05T19:12:16.240Z,23.99
2018-06-05T19:14:46.199Z,23.91
2018-06-05T19:17:16.425Z,23.87
2018-06-05T19:19:46.475Z,23.84
2018-06-05T19:22:16.581Z,23.80
2018-06-05T19:24:46.685Z,23.78
2018-06-05T19:27:16.927Z,23.74
2018-06-05T19:29:47.033Z,23.69
2018-06-05T19:32:16.672Z,23.65
2018-06-05T19:34:46.688Z,23.52
2018-06-05T19:37:16.906Z,23.44
2018-06-05T19:39:46.915Z,23.41
2018-06-05T19:42:16.942Z,23.35
2018-06-05T19:44:47.032Z,23.28
2018-06-05T19:47:17.149Z,23.18
2018-06-05T19:49:47.364Z,23.11
2018-06-05T19:52:17.440Z,23.06
2018-06-05T19:54:47.584Z,22.94
2018-06-05T19:57:18.169Z,22.88
2018-06-05T19:59:49.046Z,22.84
2018-06-05T20:02:19.294Z,22.85
2018-06-05T20:04:49.414Z,22.83
2018-06-05T20:07:19.490Z,22.81
2018-06-05T20:09:49.565Z,22.76
2018-06-05T20:12:19.845Z,22.72
2018-06-05T20:14:49.791Z,22.71
2018-06-05T20:17:20.098Z,22.68
2018-06-05T20:19:50.131Z,22.62
2018-06-05T20:22:20.125Z,22.58
2018-06-05T20:24:53.176Z,22.55
2018-06-05T20:27:22.793Z,22.51
2018-06-05T20:29:52.745Z,22.52
2018-06-05T20:32:22.991Z,22.47
2018-06-05T20:34:53.002Z,22.42
2018-06-05T20:37:23.354Z,22.38
2018-06-05T20:39:53.355Z,22.36
2018-06-05T20:42:23.706Z,22.28
2018-06-05T20:44:53.711Z,22.20
2018-06-05T20:47:23.811Z,22.07
2018-06-05T20:49:53.831Z,22.06
2018-06-05T20:52:24.423Z,22.01
2018-06-05T20:54:54.565Z,21.96
2018-06-05T20:57:26.203Z,22.02
2018-06-05T20:59:56.486Z,21.64
2018-06-05T21:02:26.661Z,21.81
2018-06-05T21:04:57.142Z,21.65
2018-06-05T21:07:27.365Z,21.69
2018-06-05T21:09:57.464Z,21.74
2018-06-05T21:12:27.562Z,21.70
2018-06-05T21:14:57.529Z,21.70
2018-06-05T21:17:27.691Z,21.61
2018-06-05T21:19:57.809Z,21.53
2018-06-05T21:22:28.095Z,21.55
2018-06-05T21:24:58.090Z,21.57
2018-06-05T21:27:28.327Z,21.53
2018-06-05T21:29:58.340Z,21.48
2018-06-05T21:32:28.462Z,21.40
2018-06-05T21:34:58.431Z,21.36
2018-06-05T21:37:28.654Z,21.37
2018-06-05T21:39:58.752Z,21.34
2018-06-05T21:42:29.081Z,21.30
2018-06-05T21:44:59.054Z,21.27
2018-06-05T21:47:29.422Z,21.26
2018-06-05T21:49:59.395Z,21.21
2018-06-05T21:52:29.457Z,21.16
2018-06-05T21:54:59.515Z,21.13
2018-06-05T21:57:29.626Z,21.09
2018-06-05T21:59:59.590Z,20.88
2018-06-05T22:02:29.167Z,20.94
2018-06-05T22:04:59.168Z,20.92
2018-06-05T22:07:29.187Z,20.87
2018-06-05T22:09:59.163Z,20.89
2018-06-05T22:12:28.842Z,20.87
2018-06-05T22:14:59.448Z,20.79
2018-06-05T22:17:29.531Z,20.72
2018-06-05T22:19:59.524Z,20.61
2018-06-05T22:22:29.585Z,20.58
2018-06-05T22:24:59.562Z,20.62
2018-06-05T22:27:29.617Z,20.53
2018-06-05T22:29:59.594Z,20.49
2018-06-05T22:32:29.638Z,20.36
2018-06-05T22:34:59.633Z,20.41
2018-06-05T22:37:29.640Z,20.50
2018-06-05T22:39:59.630Z,20.48
2018-06-05T22:42:29.686Z,20.38
2018-06-05T22:44:59.659Z,20.44
2018-06-05T22:47:29.626Z,20.43
2018-06-05T22:49:59.615Z,20.39
2018-06-05T22:52:29.668Z,20.36
2018-06-05T22:54:59.674Z,20.32
2018-06-05T22:57:29.767Z,20.23
2018-06-05T22:59:59.770Z,20.23
2018-06-05T23:02:30.005Z,20.14
2018-06-05T23:04:59.608Z,20.12
2018-06-05T23:07:29.670Z,20.07
2018-06-05T23:09:59.666Z,19.98
2018-06-05T23:12:29.295Z,19.79
2018-06-05T23:14:59.292Z,19.85
2018-06-05T23:17:29.374Z,19.73
2018-06-05T23:19:59.373Z,19.66
2018-06-05T23:22:29.486Z,19.56
2018-06-05T23:24:59.519Z,19.54
2018-06-05T23:27:30.207Z,19.54
2018-06-05T23:30:00.204Z,19.54
2018-06-05T23:32:30.324Z,19.55
2018-06-05T23:35:00.327Z,19.53
2018-06-05T23:37:30.403Z,19.45
2018-06-05T23:40:00.418Z,19.37
2018-06-05T23:42:30.127Z,19.28
2018-06-05T23:45:00.088Z,19.22
2018-06-05T23:47:30.146Z,19.18
2018-06-05T23:50:00.143Z,19.04
2018-06-05T23:52:30.210Z,18.89
2018-06-05T23:55:00.224Z,18.81
2018-06-05T23:57:30.270Z,18.79
2018-06-05T23:59:59.869Z,18.67
